Time;durP1;ratioP1;P1;durP2;ratioP2;P2;SDS_P1;SDS_P2;PMS_P1;PMS_P2;Temp;Humidity;BMP_temperature;BMP_pressure;BME280_temperature;BME280_humidity;BME280_pressure;Samples;Min_cycle;Max_cycle;Signal;HPM_P1;HPM_P2
2022/07/20 00:00:47;;;;;;;2.30;2.10;;;;;;;22.94;57.43;101287.13;5023684;28;20037;-79
2022/07/20 00:03:12;;;;;;;2.30;2.10;;;;;;;22.92;57.14;101289.09;5023666;28;20029;-78
2022/07/20 00:05:39;;;;;;;2.88;2.28;;;;;;;22.89;57.03;101292.94;5023094;28;20053;-79
2022/07/20 00:08:05;;;;;;;3.25;2.22;;;;;;;22.87;57.18;101283.28;5023252;28;20599;-79
2022/07/20 00:13:15;;;;;;;2.70;2.50;;;;;;;22.78;57.69;101276.88;5023200;28;20554;-78
2022/07/20 00:15:41;;;;;;;3.05;2.33;;;;;;;22.73;57.92;101279.13;5023459;28;20038;-79
2022/07/20 00:18:06;;;;;;;3.45;2.40;;;;;;;22.69;57.62;101278.56;5023215;28;20027;-78
2022/07/20 00:20:32;;;;;;;3.08;2.30;;;;;;;22.68;57.72;101284.09;4977942;28;20464;-78
2022/07/20 00:22:58;;;;;;;2.88;2.58;;;;;;;22.65;57.61;101280.69;5023523;28;20086;-78
2022/07/20 00:25:24;;;;;;;2.70;2.50;;;;;;;22.61;57.79;101276.56;5005268;28;20638;-77
2022/07/20 00:27:50;;;;;;;3.28;2.47;;;;;;;22.57;57.92;101285.94;5006649;28;20037;-78
2022/07/20 00:30:16;;;;;;;4.18;2.67;;;;;;;22.51;58.21;101278.38;4990829;28;20036;-77
2022/07/20 00:32:42;;;;;;;2.97;2.38;;;;;;;22.43;58.32;101268.25;5023617;28;20491;-77
2022/07/20 00:35:11;;;;;;;4.82;2.58;;;;;;;22.37;58.66;101276.88;5022902;28;20471;-77
2022/07/20 00:37:36;;;;;;;3.53;2.28;;;;;;;22.31;59.11;101269.34;5004920;28;20033;-77
2022/07/20 00:40:04;;;;;;;2.85;2.45;;;;;;;22.24;59.60;101272.56;4991452;28;20673;-77
2022/07/20 00:42:30;;;;;;;3.15;2.55;;;;;;;22.20;60.59;101267.59;4990534;28;20454;-78
2022/07/20 00:44:55;;;;;;;4.05;2.35;;;;;;;22.13;61.30;101271.84;5022749;28;20032;-78
2022/07/20 00:47:21;;;;;;;3.13;2.60;;;;;;;22.06;62.01;101272.38;5022767;28;20610;-78
2022/07/20 00:49:47;;;;;;;3.28;2.42;;;;;;;21.98;62.41;101269.50;5022408;28;20095;-78
2022/07/20 00:52:12;;;;;;;3.22;2.47;;;;;;;21.92;62.87;101265.50;4989790;28;20036;-78
2022/07/20 00:54:39;;;;;;;3.28;2.30;;;;;;;21.88;63.13;101269.44;4990836;28;20651;-78
2022/07/20 00:57:05;;;;;;;3.60;2.35;;;;;;;21.83;63.38;101267.16;5022261;28;20033;-78
2022/07/20 00:59:30;;;;;;;2.83;2.47;;;;;;;21.78;63.59;101265.88;5022773;28;20452;-78
2022/07/20 01:01:56;;;;;;;2.75;2.55;;;;;;;21.74;64.00;101265.28;5004834;28;20033;-78
2022/07/20 01:04:22;;;;;;;3.97;2.38;;;;;;;21.68;64.13;101258.53;5004474;28;20062;-78
2022/07/20 01:06:48;;;;;;;2.55;2.35;;;;;;;21.64;64.38;101265.19;5022441;28;20032;-78
2022/07/20 01:09:18;;;;;;;2.70;2.50;;;;;;;21.60;65.02;101265.56;5022125;28;20033;-78
2022/07/20 01:11:43;;;;;;;2.85;2.42;;;;;;;21.54;65.37;101259.75;5004909;28;20049;-78
2022/07/20 01:14:10;;;;;;;3.13;2.40;;;;;;;21.49;65.45;101264.66;5022872;28;20038;-78
2022/07/20 01:16:36;;;;;;;2.67;2.22;;;;;;;21.46;65.51;101267.59;4990625;28;20028;-78
2022/07/20 01:19:03;;;;;;;2.60;2.40;;;;;;;21.41;65.64;101261.78;4989643;28;20507;-77
2022/07/20 01:21:29;;;;;;;3.10;2.50;;;;;;;21.35;65.29;101251.53;5006267;28;20103;-78
2022/07/20 01:23:54;;;;;;;3.25;2.60;;;;;;;21.29;64.60;101248.34;5003187;28;20045;-78
2022/07/20 01:26:20;;;;;;;4.28;2.80;;;;;;;21.28;64.54;101252.03;5021752;28;20037;-78
2022/07/20 01:28:46;;;;;;;3.03;2.70;;;;;;;21.25;64.31;101249.59;5022141;28;20044;-77
2022/07/20 01:31:12;;;;;;;2.88;2.55;;;;;;;21.23;63.87;101248.88;5003093;28;20484;-78
2022/07/20 01:33:37;;;;;;;3.33;2.70;;;;;;;21.21;63.73;101244.59;5021702;28;20037;-77
2022/07/20 01:36:03;;;;;;;4.10;2.65;;;;;;;21.19;63.89;101241.19;5004136;28;20025;-77
2022/07/20 01:38:29;;;;;;;2.78;2.50;;;;;;;21.15;64.18;101237.91;5003934;28;20041;-77
2022/07/20 01:40:55;;;;;;;3.47;2.47;;;;;;;21.11;64.19;101239.16;5021783;28;20096;-77
2022/07/20 01:43:20;;;;;;;3.30;2.53;;;;;;;21.07;64.18;101232.34;4989389;28;20104;-78
2022/07/20 01:45:46;;;;;;;2.58;2.38;;;;;;;21.04;64.66;101233.44;4973942;28;20033;-78
2022/07/20 01:48:11;;;;;;;2.70;2.50;;;;;;;20.97;64.53;101234.94;5021722;28;20028;-78
2022/07/20 01:50:38;;;;;;;4.60;2.72;;;;;;;20.92;65.10;101237.16;5021439;28;20029;-78
2022/07/20 01:53:04;;;;;;;2.63;2.42;;;;;;;20.89;65.40;101240.94;4980923;28;20032;-78
2022/07/20 01:55:30;;;;;;;3.92;2.50;;;;;;;20.89;65.30;101232.88;5020967;28;20060;-78
2022/07/20 01:57:55;;;;;;;2.47;2.28;;;;;;;20.87;65.26;101232.16;5021131;28;20030;-78
2022/07/20 02:00:21;;;;;;;2.92;2.70;;;;;;;20.83;64.86;101236.03;5021637;28;20029;-78
2022/07/20 02:02:48;;;;;;;3.58;2.58;;;;;;;20.81;64.57;101232.63;5020722;28;20473;-77
2022/07/20 02:05:13;;;;;;;3.88;2.88;;;;;;;20.80;63.84;101233.63;5021824;28;20044;-77
2022/07/20 02:07:39;;;;;;;2.67;2.47;;;;;;;20.81;63.42;101232.63;5021508;28;20049;-78
2022/07/20 02:10:06;;;;;;;3.00;2.58;;;;;;;20.81;62.90;101224.56;4989363;28;20033;-78
2022/07/20 02:12:32;;;;;;;2.60;2.38;;;;;;;20.83;62.54;101228.84;5021150;28;20060;-78
2022/07/20 02:14:57;;;;;;;2.85;2.55;;;;;;;20.85;62.13;101223.34;5021397;28;20060;-78
2022/07/20 02:17:23;;;;;;;2.50;2.30;;;;;;;20.84;62.16;101227.88;5021331;28;20112;-78
2022/07/20 02:19:48;;;;;;;4.55;2.67;;;;;;;20.81;61.73;101220.03;5005064;28;20040;-78
2022/07/20 02:22:14;;;;;;;2.92;2.40;;;;;;;20.79;61.80;101218.44;5020781;28;20033;-78
2022/07/20 02:24:40;;;;;;;4.10;2.80;;;;;;;20.74;61.86;101219.69;5002320;28;20037;-78
2022/07/20 02:27:08;;;;;;;3.15;2.80;;;;;;;20.70;61.89;101212.84;5020909;28;20508;-78
2022/07/20 02:29:33;;;;;;;3.10;2.80;;;;;;;20.69;61.87;101213.00;5021079;28;20037;-78
2022/07/20 02:31:59;;;;;;;7.03;3.28;;;;;;;20.65;61.72;101212.41;5021177;28;20060;-78
2022/07/20 02:34:24;;;;;;;3.67;2.63;;;;;;;20.63;62.08;101217.91;4997490;28;20036;-78
2022/07/20 02:36:50;;;;;;;3.42;2.95;;;;;;;20.63;62.52;101214.34;5020835;28;20068;-78
2022/07/20 02:39:15;;;;;;;3.30;2.78;;;;;;;20.66;62.33;101218.63;5020628;28;20041;-78
2022/07/20 02:41:47;;;;;;;3.35;3.00;;;;;;;20.70;61.72;101212.00;5020558;28;20091;-78
2022/07/20 02:44:13;;;;;;;3.10;2.80;;;;;;;20.72;61.38;101216.28;5021155;28;20033;-78
2022/07/20 02:46:41;;;;;;;3.42;3.00;;;;;;;20.76;61.12;101217.72;5002721;28;20542;-78
2022/07/20 02:49:07;;;;;;;3.10;2.80;;;;;;;20.80;61.07;101206.72;5020511;28;20476;-78
2022/07/20 02:51:33;;;;;;;3.40;2.75;;;;;;;20.79;60.73;101207.69;5020594;28;20111;-78
2022/07/20 02:53:58;;;;;;;3.10;2.72;;;;;;;20.79;60.60;101203.16;4998585;28;20045;-78
2022/07/20 02:56:24;;;;;;;4.10;2.92;;;;;;;20.78;60.63;101190.69;5000401;28;20108;-78
2022/07/20 02:58:49;;;;;;;4.80;2.90;;;;;;;20.79;60.80;101200.47;5000798;28;20397;-79
2022/07/20 03:01:15;;;;;;;3.65;3.10;;;;;;;20.76;60.62;101209.66;5001518;28;20034;-78
2022/07/20 03:03:40;;;;;;;3.40;3.10;;;;;;;20.76;60.06;101215.03;5001279;28;20049;-78
2022/07/20 03:06:06;;;;;;;3.33;2.85;;;;;;;20.75;60.10;101209.78;5001324;28;20117;-78
2022/07/20 03:08:31;;;;;;;4.95;2.95;;;;;;;20.72;59.96;101207.34;4999329;28;20041;-77
2022/07/20 03:10:57;;;;;;;4.65;2.80;;;;;;;20.69;59.79;101219.22;5000638;28;20034;-77
2022/07/20 03:13:23;;;;;;;4.22;2.85;;;;;;;20.69;59.84;101204.94;5000649;28;20042;-77
2022/07/20 03:15:49;;;;;;;4.72;3.40;;;;;;;20.68;59.78;101203.19;5002798;28;20041;-77
2022/07/20 03:18:14;;;;;;;3.75;3.00;;;;;;;20.68;59.65;101204.06;5002916;28;20094;-77
2022/07/20 03:20:40;;;;;;;3.90;3.00;;;;;;;20.69;59.66;101199.56;4987101;28;20150;-77
2022/07/20 03:23:05;;;;;;;2.95;2.63;;;;;;;20.69;59.66;101203.06;5001941;28;20033;-77
2022/07/20 03:25:31;;;;;;;3.00;2.75;;;;;;;20.69;59.42;101197.69;5004230;28;20022;-78
2022/07/20 03:27:57;;;;;;;3.38;2.83;;;;;;;20.70;59.18;101210.16;5003116;28;20071;-77
2022/07/20 03:30:24;;;;;;;3.28;2.97;;;;;;;20.71;59.13;101206.47;5003875;28;20041;-78
2022/07/20 03:32:50;;;;;;;2.90;2.60;;;;;;;20.70;59.47;101194.03;5001506;28;20029;-79
2022/07/20 03:35:16;;;;;;;3.78;2.85;;;;;;;20.68;59.31;101201.38;5004276;28;20033;-78
2022/07/20 03:37:42;;;;;;;3.05;2.70;;;;;;;20.68;59.05;101205.88;4985113;28;20025;-78
2022/07/20 03:40:07;;;;;;;3.05;2.55;;;;;;;20.67;58.83;101198.81;5004702;28;20065;-78
2022/07/20 03:42:33;;;;;;;4.75;3.10;;;;;;;20.67;58.89;101196.97;5004209;28;20063;-78
2022/07/20 03:44:59;;;;;;;3.80;3.00;;;;;;;20.65;58.95;101201.63;5003949;28;20037;-78
2022/07/20 03:47:27;;;;;;;5.38;2.90;;;;;;;20.64;59.05;101194.53;5003693;28;20030;-78
2022/07/20 03:49:52;;;;;;;3.80;3.15;;;;;;;20.61;58.88;101195.63;5004086;28;20432;-80
2022/07/20 03:52:19;;;;;;;3.17;2.70;;;;;;;20.60;58.86;101209.22;5004104;28;20112;-78
2022/07/20 03:54:44;;;;;;;3.42;2.88;;;;;;;20.59;58.89;101204.84;5014962;28;20053;-78
2022/07/20 03:57:10;;;;;;;3.45;2.80;;;;;;;20.56;58.81;101197.88;5024544;28;20040;-77
2022/07/20 03:59:36;;;;;;;4.03;3.10;;;;;;;20.54;58.85;101209.72;5024240;28;20037;-78
2022/07/20 04:02:02;;;;;;;3.90;2.80;;;;;;;20.54;58.75;101215.13;5023327;28;20511;-78
2022/07/20 04:04:28;;;;;;;3.83;2.72;;;;;;;20.55;58.71;101238.31;5023396;28;20455;-78
2022/07/20 04:06:55;;;;;;;3.75;2.80;;;;;;;20.53;58.97;101243.81;5023805;28;20164;-78
2022/07/20 04:12:09;;;;;;;4.32;3.30;;;;;;;20.49;59.24;101239.69;5023457;28;20032;-77
2022/07/20 04:14:35;;;;;;;3.95;3.10;;;;;;;20.51;59.39;101236.84;5023226;28;20046;-77
2022/07/20 04:17:03;;;;;;;3.92;3.13;;;;;;;20.49;59.15;101243.22;5005544;28;20036;-77
2022/07/20 04:19:28;;;;;;;3.42;2.78;;;;;;;20.48;59.23;101249.59;5023994;28;20467;-78
2022/07/20 04:21:55;;;;;;;3.60;2.78;;;;;;;20.47;59.09;101247.00;5004765;28;20041;-78
2022/07/20 04:24:21;;;;;;;3.22;2.92;;;;;;;20.44;59.04;101245.44;4990337;28;20554;-78
2022/07/20 04:26:47;;;;;;;3.15;2.85;;;;;;;20.44;59.40;101253.50;5023206;28;20196;-78
2022/07/20 04:29:13;;;;;;;4.90;2.78;;;;;;;20.43;59.56;101251.78;5006910;28;20659;-78
2022/07/20 04:31:38;;;;;;;5.40;2.92;;;;;;;20.42;59.19;101250.09;5022966;28;20456;-78
2022/07/20 04:34:03;;;;;;;3.22;2.92;;;;;;;20.45;59.36;101252.53;4990907;28;20467;-79
2022/07/20 04:36:29;;;;;;;3.15;2.72;;;;;;;20.47;59.52;101253.25;5004863;28;21511;-78
2022/07/20 04:38:55;;;;;;;3.95;2.75;;;;;;;20.48;59.35;101252.28;5022941;28;20030;-77
2022/07/20 04:41:20;;;;;;;3.25;2.80;;;;;;;20.48;59.24;101251.41;5022855;28;20037;-77
2022/07/20 04:43:46;;;;;;;4.40;3.00;;;;;;;20.51;59.40;101263.75;5022895;28;20115;-77
2022/07/20 04:46:11;;;;;;;3.00;2.67;;;;;;;20.52;59.26;101260.09;5022243;28;20044;-77
2022/07/20 04:48:37;;;;;;;5.03;3.58;;;;;;;20.56;59.09;101258.84;5005019;28;20038;-77
2022/07/20 04:51:02;;;;;;;5.57;3.13;;;;;;;20.60;58.89;101265.72;5023196;28;20037;-77
2022/07/20 04:53:30;;;;;;;3.72;2.90;;;;;;;20.63;59.04;101257.38;5022724;28;20033;-78
2022/07/20 04:55:56;;;;;;;2.92;2.63;;;;;;;20.67;59.26;101268.72;5022263;28;20076;-78
2022/07/20 04:58:22;;;;;;;3.35;2.80;;;;;;;20.70;59.20;101269.34;5022386;28;20617;-78
2022/07/20 05:00:47;;;;;;;3.85;2.85;;;;;;;20.76;59.14;101265.31;5003689;28;20484;-78
2022/07/20 05:03:12;;;;;;;3.15;2.80;;;;;;;20.83;59.20;101271.03;4988314;28;20911;-78
2022/07/20 05:05:38;;;;;;;3.85;3.40;;;;;;;20.88;59.08;101268.84;5022255;28;20060;-78
2022/07/20 05:08:04;;;;;;;4.80;2.75;;;;;;;20.95;58.81;101278.13;5022416;28;20051;-78
2022/07/20 05:10:29;;;;;;;4.43;2.90;;;;;;;21.02;58.86;101282.00;5022633;28;20140;-78
2022/07/20 05:12:55;;;;;;;3.45;2.42;;;;;;;21.11;58.87;101287.59;5022539;28;20045;-77
2022/07/20 05:15:25;;;;;;;3.30;2.65;;;;;;;21.18;58.72;101294.16;5022001;28;20209;-77
2022/07/20 05:17:51;;;;;;;3.17;2.80;;;;;;;21.28;58.55;101283.47;5021928;28;20045;-78
2022/07/20 05:20:17;;;;;;;4.95;2.85;;;;;;;21.39;58.43;101280.75;4989225;28;20033;-78
2022/07/20 05:22:42;;;;;;;4.00;2.80;;;;;;;21.52;58.18;101282.41;5022426;28;20068;-78
2022/07/20 05:25:08;;;;;;;4.95;3.05;;;;;;;21.66;57.79;101286.59;5021828;28;20045;-78
2022/07/20 05:27:34;;;;;;;2.80;2.60;;;;;;;21.81;57.54;101279.06;5021871;28;20068;-78
2022/07/20 05:29:59;;;;;;;4.35;3.15;;;;;;;21.96;57.23;101276.88;5022424;28;20025;-77
2022/07/20 05:32:25;;;;;;;3.20;2.90;;;;;;;22.11;56.37;101275.53;5022339;28;20338;-78
2022/07/20 05:34:50;;;;;;;5.35;2.97;;;;;;;22.24;56.32;101269.03;5022430;28;20029;-77
2022/07/20 05:37:16;;;;;;;4.22;3.15;;;;;;;22.37;56.25;101291.22;5001891;28;20055;-77
2022/07/20 05:39:41;;;;;;;4.05;2.90;;;;;;;22.47;56.06;101309.28;5022178;28;20025;-77
2022/07/20 05:42:07;;;;;;;3.30;3.00;;;;;;;22.57;55.92;101320.13;5004403;28;20025;-78
2022/07/20 05:44:32;;;;;;;3.70;3.17;;;;;;;22.67;55.79;101306.69;5004275;28;20032;-78
2022/07/20 05:46:58;;;;;;;2.97;2.65;;;;;;;22.77;55.32;101310.25;5021587;28;20052;-78
2022/07/20 05:49:26;;;;;;;4.80;2.78;;;;;;;22.86;55.41;101325.63;5003481;28;20041;-78
2022/07/20 05:51:51;;;;;;;3.72;3.17;;;;;;;22.96;55.29;101343.66;5003705;28;20048;-78
2022/07/20 05:54:17;;;;;;;3.28;2.70;;;;;;;23.05;55.28;101337.44;5003507;28;20141;-78
2022/07/20 05:56:42;;;;;;;4.10;3.20;;;;;;;23.16;55.01;101329.19;5021402;28;20553;-77
2022/07/20 05:59:08;;;;;;;2.92;2.72;;;;;;;23.28;55.33;101342.56;4981480;28;20387;-78
2022/07/20 06:01:34;;;;;;;2.80;2.60;;;;;;;23.42;55.46;101352.97;5003354;28;20024;-78
2022/07/20 06:04:00;;;;;;;3.47;3.17;;;;;;;23.58;54.91;101348.84;5003448;28;20032;-78
2022/07/20 06:06:26;;;;;;;4.20;2.92;;;;;;;23.72;54.92;101344.84;4989548;28;20033;-79
2022/07/20 06:08:51;;;;;;;4.88;3.25;;;;;;;23.90;54.94;101341.41;5019547;28;20767;-79
2022/07/20 06:11:17;;;;;;;4.10;3.58;;;;;;;24.03;54.88;101346.50;5002991;28;20485;-78
2022/07/20 06:13:42;;;;;;;5.53;3.22;;;;;;;24.19;55.05;101351.31;5021586;28;20653;-78
2022/07/20 06:16:08;;;;;;;5.93;3.50;;;;;;;24.34;54.97;101349.00;5021046;28;20037;-78
2022/07/20 06:18:33;;;;;;;6.65;3.63;;;;;;;24.45;55.14;101340.69;5003317;28;20037;-78
2022/07/20 06:20:59;;;;;;;4.35;3.50;;;;;;;24.59;55.61;101338.47;5003305;28;20049;-79
2022/07/20 06:23:24;;;;;;;4.40;3.47;;;;;;;24.74;56.30;101336.13;5021242;28;20044;-79
2022/07/20 06:25:50;;;;;;;5.35;3.70;;;;;;;24.91;56.44;101331.78;5002133;28;20045;-79
2022/07/20 06:28:15;;;;;;;6.40;4.25;;;;;;;25.06;56.51;101335.66;5020716;28;20041;-78
2022/07/20 06:30:41;;;;;;;5.45;4.05;;;;;;;25.17;56.85;101339.16;5002792;28;20380;-79
2022/07/20 06:33:06;;;;;;;5.85;4.43;;;;;;;25.35;57.29;101337.31;5005366;28;20080;-78
2022/07/20 06:35:32;;;;;;;7.50;5.15;;;;;;;25.54;57.45;101346.28;5020642;28;20033;-79
2022/07/20 06:37:58;;;;;;;8.07;5.15;;;;;;;25.79;57.74;101348.31;4988499;28;20118;-79
2022/07/20 06:40:24;;;;;;;9.15;5.68;;;;;;;25.97;57.93;101361.84;5002693;28;20236;-80
2022/07/20 06:42:49;;;;;;;7.93;5.53;;;;;;;26.10;58.22;101367.69;5018817;28;20033;-78
2022/07/20 06:45:15;;;;;;;8.02;5.70;;;;;;;26.29;58.19;101371.22;4986264;28;20026;-78
2022/07/20 06:47:41;;;;;;;9.10;6.20;;;;;;;26.44;58.73;101369.63;4988533;28;20034;-77
2022/07/20 06:50:06;;;;;;;10.27;6.88;;;;;;;26.67;59.05;101369.03;5020443;28;20029;-77
2022/07/20 06:52:33;;;;;;;10.77;7.65;;;;;;;26.81;59.37;101366.69;5019988;28;20068;-77
2022/07/20 06:54:59;;;;;;;12.20;8.13;;;;;;;26.87;59.82;101367.91;4996446;28;20340;-77
2022/07/20 06:57:24;;;;;;;11.55;8.15;;;;;;;26.94;60.00;101372.53;5020693;28;20040;-77
2022/07/20 06:59:50;;;;;;;12.30;8.63;;;;;;;27.07;60.78;101382.91;5002031;28;20095;-80
2022/07/20 07:02:16;;;;;;;11.85;8.60;;;;;;;27.14;60.73;101374.09;4986490;28;20040;-80
2022/07/20 07:04:42;;;;;;;12.35;8.93;;;;;;;27.21;60.52;101376.00;5002663;28;20431;-78
2022/07/20 07:07:07;;;;;;;13.75;9.32;;;;;;;27.24;60.80;101381.09;5020394;28;20121;-79
2022/07/20 07:09:33;;;;;;;14.63;9.25;;;;;;;27.24;61.14;101394.66;5020488;28;20091;-78
2022/07/20 07:11:59;;;;;;;17.75;9.30;;;;;;;27.24;61.47;101397.38;5020531;28;20071;-84
2022/07/20 07:14:25;;;;;;;17.40;10.70;;;;;;;27.27;61.35;101395.38;5002362;28;20584;-78
2022/07/20 07:16:52;;;;;;;12.80;9.82;;;;;;;27.30;61.67;101395.03;5020734;28;20060;-77
2022/07/20 07:19:18;;;;;;;12.95;10.18;;;;;;;27.36;62.00;101405.22;5018977;28;20446;-78
2022/07/20 07:21:43;;;;;;;13.90;9.88;;;;;;;27.45;61.78;101404.22;5020306;28;20048;-79
2022/07/20 07:24:09;;;;;;;15.13;11.27;;;;;;;27.50;61.93;101407.28;5019854;28;20127;-78
2022/07/20 07:26:34;;;;;;;16.88;10.82;;;;;;;27.65;62.23;101410.22;5020282;28;20100;-78
2022/07/20 07:29:00;;;;;;;16.27;10.95;;;;;;;27.73;62.01;101412.06;5019845;28;20600;-82
2022/07/20 07:31:25;;;;;;;15.23;10.02;;;;;;;27.76;62.36;101417.19;5002658;28;20029;-80
2022/07/20 07:33:51;;;;;;;13.70;10.63;;;;;;;27.85;62.35;101417.16;4985694;28;20039;-78
2022/07/20 07:36:16;;;;;;;18.88;11.63;;;;;;;27.96;61.51;101415.97;5002516;28;20052;-79
2022/07/20 07:38:42;;;;;;;23.77;12.98;;;;;;;27.91;60.78;101417.34;5001889;28;20033;-80
2022/07/20 07:41:08;;;;;;;19.70;11.88;;;;;;;27.87;61.25;101418.69;5020588;28;20491;-78
2022/07/20 07:43:34;;;;;;;16.55;10.85;;;;;;;27.93;61.15;101433.47;5020880;28;20629;-79
2022/07/20 07:45:59;;;;;;;16.70;12.30;;;;;;;27.96;60.40;101443.19;5002012;28;20090;-80
2022/07/20 07:48:25;;;;;;;16.55;11.15;;;;;;;27.97;60.56;101434.00;5020324;28;20479;-83
2022/07/20 07:50:50;;;;;;;16.42;11.60;;;;;;;27.98;60.10;101447.44;5020152;28;20033;-80
2022/07/20 07:53:16;;;;;;;15.45;12.00;;;;;;;28.04;60.37;101452.19;5002128;28;20143;-82
2022/07/20 07:55:42;;;;;;;18.10;12.48;;;;;;;28.07;60.08;101445.56;4998567;28;20053;-78
2022/07/20 07:58:09;;;;;;;15.40;11.52;;;;;;;28.08;60.00;101449.97;5000516;28;20416;-81
2022/07/20 08:00:35;;;;;;;15.45;11.60;;;;;;;28.08;59.37;101441.81;4989754;28;20631;-83
2022/07/20 08:03:01;;;;;;;19.05;11.77;;;;;;;28.07;59.94;101451.00;5003817;28;20026;-79
2022/07/20 08:05:27;;;;;;;18.55;12.35;;;;;;;28.16;59.34;101454.56;5003893;28;20495;-81
2022/07/20 08:07:52;;;;;;;17.38;12.50;;;;;;;28.20;59.38;101467.66;5003945;28;20033;-81
2022/07/20 08:10:18;;;;;;;16.75;12.38;;;;;;;28.26;59.90;101477.03;5003651;28;21379;-78
2022/07/20 08:12:44;;;;;;;18.08;12.93;;;;;;;28.47;59.36;101472.91;5002387;28;20444;-79
2022/07/20 08:15:10;;;;;;;17.73;12.77;;;;;;;28.57;59.19;101468.13;5004623;28;20129;-80
2022/07/20 08:17:39;;;;;;;18.42;12.95;;;;;;;28.58;58.39;101468.97;5002918;28;20459;-79
2022/07/20 08:20:06;;;;;;;19.50;13.05;;;;;;;28.50;58.64;101471.72;5004603;28;20407;-83
2022/07/20 08:22:33;;;;;;;18.98;13.00;;;;;;;28.49;58.27;101472.72;5003379;28;20581;-80
2022/07/20 08:24:59;;;;;;;17.45;13.32;;;;;;;28.51;58.20;101477.00;5002119;28;20488;-81
2022/07/20 08:27:24;;;;;;;16.75;12.95;;;;;;;28.50;58.07;101488.03;5003835;28;20120;-81
2022/07/20 08:29:57;;;;;;;17.38;12.85;;;;;;;28.53;57.99;101510.31;5003167;28;20681;-82
2022/07/20 08:32:26;;;;;;;16.30;12.90;;;;;;;28.60;58.30;101521.41;5000923;28;20160;-80
2022/07/20 08:34:52;;;;;;;17.42;13.13;;;;;;;28.63;58.42;101537.38;4987459;28;20083;-82
2022/07/20 08:37:18;;;;;;;17.80;14.13;;;;;;;28.55;58.17;101542.84;5003207;28;20041;-81
2022/07/20 08:39:44;;;;;;;19.00;13.30;;;;;;;28.59;57.79;101542.31;5003586;28;20033;-84
2022/07/20 08:42:10;;;;;;;18.95;12.40;;;;;;;28.60;57.36;101549.47;5003214;28;20067;-79
2022/07/20 08:44:35;;;;;;;16.15;12.27;;;;;;;28.60;57.33;101551.34;5003165;28;20394;-80
2022/07/20 08:47:01;;;;;;;18.52;12.10;;;;;;;28.51;56.36;101557.81;5017521;28;20128;-81
2022/07/20 08:49:28;;;;;;;15.82;12.60;;;;;;;28.35;57.06;101545.91;5003185;28;20041;-80
2022/07/20 08:51:54;;;;;;;16.17;12.63;;;;;;;28.24;57.08;101558.00;5003995;28;20038;-79
2022/07/20 08:54:19;;;;;;;17.13;12.48;;;;;;;28.17;57.30;101559.66;5003303;28;20076;-81
2022/07/20 08:56:45;;;;;;;17.55;11.80;;;;;;;28.09;57.91;101562.41;5002840;28;20380;-79
2022/07/20 08:59:11;;;;;;;14.75;10.85;;;;;;;28.19;57.42;101576.66;5002421;28;20604;-81
2022/07/20 09:01:57;;;;;;;14.10;9.82;;;;;;;28.14;55.00;101579.03;5003510;28;20041;-77
2022/07/20 09:04:22;;;;;;;15.50;8.80;;;;;;;28.08;55.84;101577.00;5001360;28;20033;-81
2022/07/20 09:06:49;;;;;;;15.52;9.05;;;;;;;28.06;56.46;101578.00;4986306;28;20030;-78
2022/07/20 09:09:16;;;;;;;12.57;8.68;;;;;;;28.09;55.04;101586.88;4984756;28;21038;-79
2022/07/20 09:11:42;;;;;;;11.68;9.73;;;;;;;28.02;55.42;101595.72;5000359;28;20430;-81
2022/07/20 09:14:07;;;;;;;11.20;8.57;;;;;;;27.98;55.73;101593.47;5002751;28;20137;-80
2022/07/20 09:16:40;;;;;;;14.02;8.85;;;;;;;28.01;55.73;101599.47;5002862;28;20116;-80
2022/07/20 09:19:06;;;;;;;12.48;9.20;;;;;;;28.12;56.53;101597.41;5002508;28;20164;-78
2022/07/20 09:21:33;;;;;;;13.25;9.98;;;;;;;28.22;56.51;101594.56;5001277;28;20045;-79
2022/07/20 09:24:06;;;;;;;12.50;9.75;;;;;;;28.35;55.38;101610.38;5000822;28;20037;-81
2022/07/20 09:26:32;;;;;;;13.07;9.07;;;;;;;28.44;55.64;101610.22;5001270;28;20095;-79
2022/07/20 09:29:00;;;;;;;12.52;8.85;;;;;;;28.31;55.91;101616.19;5002310;28;20496;-79
2022/07/20 09:31:36;;;;;;;11.15;8.77;;;;;;;28.33;55.11;101614.13;5002334;28;20072;-81
2022/07/20 09:34:05;;;;;;;11.95;8.85;;;;;;;28.42;55.22;101616.84;4973925;28;20421;-83
2022/07/20 09:36:34;;;;;;;9.95;8.00;;;;;;;28.37;52.96;101603.75;5002007;28;20061;-81
2022/07/20 09:39:14;;;;;;;10.90;7.65;;;;;;;28.51;53.02;101614.97;4983419;28;20045;-79
2022/07/20 09:41:42;;;;;;;9.85;6.95;;;;;;;28.66;52.71;101617.88;5000253;28;20034;-79
2022/07/20 09:44:12;;;;;;;7.60;6.80;;;;;;;28.70;52.07;101614.63;5002075;28;20076;-80
2022/07/20 09:46:38;;;;;;;9.80;6.55;;;;;;;28.73;51.93;101608.00;5002576;28;20037;-80
2022/07/20 09:49:06;;;;;;;9.25;6.18;;;;;;;28.68;50.27;101622.13;5003287;28;20064;-80
2022/07/20 09:51:57;;;;;;;10.57;6.95;;;;;;;28.59;50.16;101618.56;5002173;28;20034;-78
2022/07/20 09:54:23;;;;;;;9.10;6.85;;;;;;;28.53;50.85;101616.53;5006131;28;20080;-80
2022/07/20 09:56:50;;;;;;;8.85;6.63;;;;;;;28.53;50.90;101632.84;5003465;28;20128;-80
2022/07/20 09:59:18;;;;;;;8.32;6.25;;;;;;;28.52;50.40;101625.72;5020085;28;20049;-81
2022/07/20 10:01:46;;;;;;;9.82;6.30;;;;;;;28.54;50.30;101623.66;5005897;28;20040;-79
2022/07/20 10:04:13;;;;;;;9.57;6.60;;;;;;;28.58;50.01;101625.03;5003732;28;20494;-82
2022/07/20 10:06:42;;;;;;;10.15;6.63;;;;;;;28.54;49.97;101622.84;5021422;28;20037;-81
2022/07/20 10:09:09;;;;;;;7.60;6.47;;;;;;;28.50;49.47;101625.03;5021119;28;20033;-80
2022/07/20 10:11:35;;;;;;;9.93;6.53;;;;;;;28.51;49.81;101629.47;5005981;28;20116;-81
2022/07/20 10:14:02;;;;;;;11.32;6.93;;;;;;;28.55;49.55;101617.19;5021143;28;20037;-82
2022/07/20 10:16:28;;;;;;;9.35;6.55;;;;;;;28.57;49.84;101623.34;5019474;28;20041;-82
2022/07/20 10:18:54;;;;;;;10.80;6.50;;;;;;;28.56;49.50;101624.38;5021648;28;20041;-82
2022/07/20 10:21:36;;;;;;;7.80;6.35;;;;;;;28.56;48.76;101618.91;5021287;28;20023;-82
2022/07/20 10:24:22;;;;;;;9.38;5.68;;;;;;;28.52;48.74;101627.56;5020320;28;20814;-82
2022/07/20 10:26:52;;;;;;;7.05;5.82;;;;;;;28.58;49.53;101621.44;5020965;28;20033;-81
2022/07/20 10:29:44;;;;;;;6.70;5.15;;;;;;;28.66;48.38;101621.47;5021113;28;20037;-78
2022/07/20 10:32:23;;;;;;;8.43;5.22;;;;;;;28.63;48.56;101632.69;5017661;28;20622;-80
2022/07/20 10:34:50;;;;;;;9.30;4.97;;;;;;;28.58;47.95;101621.44;5021457;28;20091;-80
2022/07/20 10:37:24;;;;;;;6.25;4.68;;;;;;;28.58;48.28;101618.72;4985354;28;20052;-79
2022/07/20 10:40:11;;;;;;;7.32;5.22;;;;;;;28.60;48.06;101630.31;5020646;28;20033;-79
2022/07/20 10:42:47;;;;;;;6.43;5.10;;;;;;;28.62;47.42;101621.97;5020079;28;20054;-82
2022/07/20 10:45:27;;;;;;;7.60;4.97;;;;;;;28.59;46.81;101628.59;5021130;28;20049;-82
2022/07/20 10:48:14;;;;;;;7.13;5.13;;;;;;;28.44;46.34;101628.44;5019945;28;20040;-81
2022/07/20 10:50:49;;;;;;;7.65;5.00;;;;;;;28.43;47.29;101629.47;5020703;28;20030;-79
2022/07/20 10:53:14;;;;;;;9.55;5.32;;;;;;;28.49;47.68;101622.47;5004832;28;20113;-79
2022/07/20 10:55:53;;;;;;;8.05;5.05;;;;;;;28.52;46.98;101612.09;4998681;28;20057;-81
2022/07/20 10:58:31;;;;;;;7.82;5.47;;;;;;;28.53;46.92;101621.13;4999083;28;20045;-83
2022/07/20 11:01:08;;;;;;;8.45;4.97;;;;;;;28.57;47.24;101639.69;5000887;28;20384;-80
2022/07/20 11:03:37;;;;;;;7.28;5.22;;;;;;;28.60;47.39;101638.50;5000383;28;20030;-79
2022/07/20 11:06:06;;;;;;;7.53;5.00;;;;;;;28.65;47.26;101643.41;5000544;28;20678;-80
2022/07/20 11:08:33;;;;;;;6.82;5.07;;;;;;;28.64;46.87;101647.16;4985107;28;20096;-80
2022/07/20 11:10:59;;;;;;;9.07;5.60;;;;;;;28.59;46.67;101656.69;4999510;28;20022;-81
2022/07/20 11:13:24;;;;;;;7.18;5.60;;;;;;;28.52;47.28;101654.81;5000821;28;20087;-81
2022/07/20 11:15:53;;;;;;;8.60;5.78;;;;;;;28.55;46.91;101659.94;4999418;28;20150;-80
2022/07/20 11:18:24;;;;;;;7.65;5.68;;;;;;;28.51;46.53;101653.97;5000324;28;20377;-80
2022/07/20 11:21:01;;;;;;;5.80;5.10;;;;;;;28.51;46.90;101648.53;4984486;28;20188;-79
2022/07/20 11:23:46;;;;;;;7.30;4.90;;;;;;;28.54;47.29;101642.72;4999062;28;20096;-79
2022/07/20 11:26:14;;;;;;;8.50;5.22;;;;;;;28.56;47.80;101646.16;4999628;28;21561;-79